KAL278 RKSI-WSSS
Flight info
| Callsign | KAL278 |
|---|---|
| Flight time | N/A |
| Altitude | 36000 |
| Route | SEL B576 ATOTI/N0467F380 B576 APU B1 ANLOT W4 TNN A577 KABAM/N0470F360 N892 MIKIN/N0469F390 N892 MIGUG/K0867F390 N892 MOXON/K0861F400 N892 MELAS/N0465F400 N892 MABAL MABAL2A |
| Aircraft | A333/H-SDE3GHIJ2J3J5M1RVWXY/LB2D1 |
Departure
| Time | 2026-05-01 12:29 |
|---|---|
| Airport | Incheon International Airport (RKSI) |
Arrival
| Time | N/A |
|---|---|
| Airport | Singapore Changi Airport (WSSS) |
| Time | Latitude | Longitude | Altitude | Speed | Heading |
|---|---|---|---|---|---|
| 2026-05-01 11:42 | 37.46609 | 126.44002 | 36 ft | 0 kts | 54° |
| 2026-05-01 12:13 | 37.46596 | 126.43980 | 35 ft | 4 kts | 54° |
| 2026-05-01 12:13 | 37.46581 | 126.43952 | 35 ft | 4 kts | 54° |
| 2026-05-01 12:13 | 37.46567 | 126.43928 | 34 ft | 4 kts | 73° |
| 2026-05-01 12:14 | 37.46570 | 126.43901 | 32 ft | 4 kts | 130° |
| 2026-05-01 12:14 | 37.46586 | 126.43883 | 35 ft | 0 kts | 144° |
| 2026-05-01 12:18 | 37.46585 | 126.43884 | 35 ft | 0 kts | 144° |
| 2026-05-01 12:18 | 37.46565 | 126.43901 | 34 ft | 8 kts | 144° |
| 2026-05-01 12:19 | 37.46507 | 126.43958 | 36 ft | 13 kts | 141° |
| 2026-05-01 12:19 | 37.46431 | 126.44014 | 36 ft | 12 kts | 163° |
| 2026-05-01 12:19 | 37.46365 | 126.43976 | 36 ft | 11 kts | 231° |
| 2026-05-01 12:19 | 37.46321 | 126.43903 | 36 ft | 10 kts | 233° |
| 2026-05-01 12:20 | 37.46278 | 126.43832 | 36 ft | 10 kts | 233° |
| 2026-05-01 12:20 | 37.46238 | 126.43763 | 36 ft | 10 kts | 235° |
| 2026-05-01 12:20 | 37.46200 | 126.43694 | 36 ft | 9 kts | 235° |
| 2026-05-01 12:20 | 37.46163 | 126.43627 | 36 ft | 9 kts | 235° |
| 2026-05-01 12:21 | 37.46128 | 126.43563 | 36 ft | 9 kts | 234° |
| 2026-05-01 12:21 | 37.46091 | 126.43498 | 36 ft | 10 kts | 234° |
| 2026-05-01 12:21 | 37.46052 | 126.43429 | 36 ft | 10 kts | 234° |
| 2026-05-01 12:21 | 37.46013 | 126.43362 | 36 ft | 9 kts | 234° |
| 2026-05-01 12:22 | 37.45975 | 126.43296 | 36 ft | 9 kts | 234° |
| 2026-05-01 12:22 | 37.45933 | 126.43236 | 36 ft | 9 kts | 218° |
| 2026-05-01 12:22 | 37.45871 | 126.43239 | 36 ft | 11 kts | 152° |
| 2026-05-01 12:22 | 37.45806 | 126.43292 | 36 ft | 12 kts | 146° |
| 2026-05-01 12:23 | 37.45730 | 126.43361 | 36 ft | 15 kts | 146° |
| 2026-05-01 12:23 | 37.45631 | 126.43447 | 36 ft | 19 kts | 145° |
| 2026-05-01 12:23 | 37.45515 | 126.43552 | 36 ft | 22 kts | 144° |
| 2026-05-01 12:23 | 37.45391 | 126.43659 | 36 ft | 21 kts | 145° |
| 2026-05-01 12:24 | 37.45272 | 126.43767 | 36 ft | 21 kts | 144° |
| 2026-05-01 12:24 | 37.45155 | 126.43871 | 36 ft | 20 kts | 145° |
| 2026-05-01 12:24 | 37.45040 | 126.43973 | 36 ft | 20 kts | 144° |
| 2026-05-01 12:24 | 37.44928 | 126.44072 | 36 ft | 20 kts | 144° |
| 2026-05-01 12:25 | 37.44819 | 126.44171 | 36 ft | 19 kts | 144° |
| 2026-05-01 12:25 | 37.44609 | 126.44358 | 36 ft | 17 kts | 144° |
| 2026-05-01 12:25 | 37.44546 | 126.44416 | 36 ft | 4 kts | 145° |
| 2026-05-01 12:26 | 37.44518 | 126.44424 | 36 ft | 4 kts | 180° |
| 2026-05-01 12:26 | 37.44479 | 126.44393 | 36 ft | 3 kts | 229° |
| 2026-05-01 12:26 | 37.44459 | 126.44361 | 36 ft | 6 kts | 232° |
| 2026-05-01 12:27 | 37.44428 | 126.44308 | 36 ft | 9 kts | 234° |
| 2026-05-01 12:27 | 37.44388 | 126.44141 | 36 ft | 11 kts | 307° |
| 2026-05-01 12:28 | 37.44566 | 126.43970 | 36 ft | 54 kts | 324° |
| 2026-05-01 12:28 | 37.45035 | 126.43557 | 37 ft | 108 kts | 325° |
| 2026-05-01 12:28 | 37.46421 | 126.42360 | 164 ft | 171 kts | 324° |
| 2026-05-01 12:29 | 37.47444 | 126.41551 | 632 ft | 181 kts | 326° |
| 2026-05-01 12:29 | 37.48563 | 126.40696 | 1065 ft | 193 kts | 326° |
| 2026-05-01 12:29 | 37.50869 | 126.38973 | 1891 ft | 175 kts | 323° |
| 2026-05-01 12:30 | 37.52057 | 126.36662 | 2203 ft | 155 kts | 291° |
| 2026-05-01 12:30 | 37.52411 | 126.35438 | 2759 ft | 144 kts | 290° |
| 2026-05-01 12:30 | 37.52746 | 126.34270 | 3217 ft | 140 kts | 290° |
| 2026-05-01 12:31 | 37.53076 | 126.33125 | 3623 ft | 138 kts | 290° |
| 2026-05-01 12:31 | 37.53406 | 126.31986 | 4014 ft | 138 kts | 290° |
| 2026-05-01 12:31 | 37.53426 | 126.30725 | 4164 ft | 158 kts | 256° |
| 2026-05-01 12:31 | 37.53093 | 126.29412 | 4497 ft | 159 kts | 256° |
| 2026-05-01 12:32 | 37.52732 | 126.28064 | 4881 ft | 158 kts | 256° |
| 2026-05-01 12:32 | 37.52065 | 126.25672 | 5694 ft | 152 kts | 257° |
| 2026-05-01 12:32 | 37.51733 | 126.24407 | 6125 ft | 141 kts | 258° |
| 2026-05-01 12:33 | 37.51392 | 126.23195 | 6194 ft | 167 kts | 254° |
| 2026-05-01 12:33 | 37.50813 | 126.21744 | 5616 ft | 200 kts | 232° |
| 2026-05-01 12:33 | 37.49612 | 126.20823 | 5788 ft | 215 kts | 196° |
| 2026-05-01 12:33 | 37.48181 | 126.21131 | 6572 ft | 207 kts | 143° |
| 2026-05-01 12:34 | 37.46949 | 126.22306 | 6870 ft | 237 kts | 146° |
| 2026-05-01 12:34 | 37.45574 | 126.23535 | 7139 ft | 240 kts | 147° |
| 2026-05-01 12:34 | 37.44156 | 126.24767 | 7412 ft | 256 kts | 147° |
| 2026-05-01 12:34 | 37.42641 | 126.26075 | 7766 ft | 270 kts | 147° |
| 2026-05-01 12:35 | 37.41058 | 126.27445 | 8217 ft | 282 kts | 147° |
| 2026-05-01 12:35 | 37.39419 | 126.28868 | 8719 ft | 290 kts | 146° |
| 2026-05-01 12:35 | 37.37738 | 126.30333 | 9275 ft | 298 kts | 146° |
| 2026-05-01 12:35 | 37.36021 | 126.31836 | 9841 ft | 304 kts | 146° |
| 2026-05-01 12:36 | 37.34275 | 126.33370 | 10405 ft | 308 kts | 146° |
| 2026-05-01 12:36 | 37.32510 | 126.34928 | 10986 ft | 312 kts | 146° |
| 2026-05-01 12:36 | 37.30725 | 126.36510 | 11570 ft | 315 kts | 145° |
| 2026-05-01 12:36 | 37.28929 | 126.38110 | 12190 ft | 318 kts | 145° |
| 2026-05-01 12:37 | 37.27123 | 126.39725 | 12815 ft | 320 kts | 145° |
| 2026-05-01 12:37 | 37.25309 | 126.41354 | 13445 ft | 321 kts | 144° |
| 2026-05-01 12:37 | 37.23514 | 126.42972 | 14020 ft | 323 kts | 144° |
| 2026-05-01 12:37 | 37.21667 | 126.44644 | 14597 ft | 324 kts | 144° |
| 2026-05-01 12:38 | 37.19813 | 126.46078 | 15438 ft | 305 kts | 159° |
| 2026-05-01 12:38 | 37.17942 | 126.46822 | 16664 ft | 277 kts | 169° |
| 2026-05-01 12:38 | 37.16008 | 126.47423 | 16767 ft | 292 kts | 170° |
| 2026-05-01 12:38 | 37.14004 | 126.48020 | 17176 ft | 292 kts | 171° |
| 2026-05-01 12:39 | 37.12032 | 126.48613 | 17679 ft | 295 kts | 171° |
| 2026-05-01 12:39 | 37.09962 | 126.49245 | 17554 ft | 321 kts | 169° |
| 2026-05-01 12:39 | 37.07702 | 126.49922 | 17458 ft | 344 kts | 170° |
| 2026-05-01 12:39 | 37.05309 | 126.50625 | 17484 ft | 362 kts | 170° |
| 2026-05-01 12:40 | 37.02799 | 126.51358 | 17565 ft | 378 kts | 170° |
| 2026-05-01 12:40 | 37.00163 | 126.51948 | 17640 ft | 392 kts | 173° |
| 2026-05-01 12:40 | 36.97512 | 126.53013 | 17820 ft | 409 kts | 158° |
| 2026-05-01 12:40 | 36.94918 | 126.54591 | 18018 ft | 420 kts | 154° |
| 2026-05-01 12:41 | 36.92329 | 126.56365 | 18325 ft | 427 kts | 152° |
| 2026-05-01 12:41 | 36.89737 | 126.58215 | 18674 ft | 432 kts | 152° |
| 2026-05-01 12:41 | 36.87123 | 126.60106 | 19028 ft | 436 kts | 152° |
| 2026-05-01 12:41 | 36.84493 | 126.62014 | 19384 ft | 439 kts | 152° |
| 2026-05-01 12:42 | 36.81783 | 126.63674 | 19759 ft | 440 kts | 161° |
| 2026-05-01 12:42 | 36.78885 | 126.64891 | 20124 ft | 440 kts | 168° |
| 2026-05-01 12:42 | 36.75904 | 126.65762 | 20465 ft | 442 kts | 172° |
| 2026-05-01 12:42 | 36.72881 | 126.66535 | 20829 ft | 445 kts | 172° |
| 2026-05-01 12:43 | 36.69838 | 126.67307 | 21203 ft | 448 kts | 172° |
| 2026-05-01 12:43 | 36.66776 | 126.68085 | 21561 ft | 451 kts | 172° |
| 2026-05-01 12:43 | 36.63691 | 126.68817 | 21899 ft | 452 kts | 176° |
| 2026-05-01 12:43 | 36.60555 | 126.69175 | 22223 ft | 451 kts | 182° |
| 2026-05-01 12:44 | 36.57427 | 126.69260 | 22639 ft | 451 kts | 184° |
| 2026-05-01 12:44 | 36.54277 | 126.69311 | 22976 ft | 454 kts | 184° |
| 2026-05-01 12:44 | 36.47906 | 126.69424 | 23630 ft | 460 kts | 184° |
| 2026-05-01 12:45 | 36.41470 | 126.69562 | 24215 ft | 464 kts | 184° |
| 2026-05-01 12:45 | 36.38283 | 126.69648 | 24576 ft | 464 kts | 184° |
| 2026-05-01 12:45 | 36.35049 | 126.69751 | 24901 ft | 466 kts | 184° |
| 2026-05-01 12:46 | 36.31804 | 126.69869 | 25199 ft | 467 kts | 184° |
| 2026-05-01 12:46 | 36.28545 | 126.69998 | 25480 ft | 470 kts | 184° |
| 2026-05-01 12:46 | 36.25269 | 126.70158 | 25756 ft | 473 kts | 183° |
| 2026-05-01 12:46 | 36.21976 | 126.70443 | 26033 ft | 473 kts | 185° |
| 2026-05-01 12:47 | 36.18725 | 126.70252 | 26312 ft | 464 kts | 195° |
| 2026-05-01 12:47 | 36.15554 | 126.69584 | 26621 ft | 461 kts | 199° |
| 2026-05-01 12:47 | 36.12417 | 126.68757 | 26910 ft | 460 kts | 201° |
| 2026-05-01 12:47 | 36.09303 | 126.67833 | 27205 ft | 460 kts | 202° |
| 2026-05-01 12:48 | 36.06195 | 126.66862 | 27483 ft | 461 kts | 202° |
| 2026-05-01 12:48 | 36.03081 | 126.65877 | 27755 ft | 463 kts | 202° |